createdAt,value
2023-02-05T00:00:42.572Z,29.60
2023-02-05T00:05:34.748Z,28.10
2023-02-05T00:10:26.736Z,27.80
2023-02-05T00:15:18.763Z,26.15
2023-02-05T00:20:11.103Z,30.08
2023-02-05T00:25:02.929Z,25.27
2023-02-05T00:29:54.693Z,28.23
2023-02-05T00:34:46.722Z,27.48
2023-02-05T00:39:38.600Z,30.25
2023-02-05T00:44:30.370Z,30.52
2023-02-05T00:49:22.158Z,26.50
2023-02-05T00:54:14.031Z,27.20
2023-02-05T00:59:05.787Z,27.77
2023-02-05T01:03:57.804Z,28.58
2023-02-05T01:08:49.626Z,27.05
2023-02-05T01:13:41.958Z,27.23
2023-02-05T01:18:33.926Z,26.20
2023-02-05T01:23:26.010Z,28.63
2023-02-05T01:28:18.668Z,30.08
2023-02-05T01:33:11.094Z,25.42
2023-02-05T01:38:02.866Z,28.88
2023-02-05T01:42:54.719Z,25.40
2023-02-05T01:47:47.320Z,23.67
2023-02-05T01:52:39.123Z,23.45
2023-02-05T01:57:30.994Z,25.33
2023-02-05T02:02:22.854Z,24.63
2023-02-05T02:07:19.242Z,27.67
2023-02-05T02:12:14.507Z,25.58
2023-02-05T02:17:07.409Z,23.25
2023-02-05T02:22:36.945Z,22.80
2023-02-05T02:27:34.359Z,24.50
2023-02-05T02:32:39.852Z,21.85
2023-02-05T02:38:10.866Z,23.02
2023-02-05T02:43:10.663Z,23.42
2023-02-05T02:48:03.881Z,21.33
2023-02-05T02:52:56.226Z,23.75
2023-02-05T02:57:49.368Z,24.35
2023-02-05T03:02:42.756Z,21.23
2023-02-05T03:07:40.177Z,23.98
2023-02-05T03:12:32.149Z,21.98
2023-02-05T03:17:25.087Z,21.63
2023-02-05T03:22:17.838Z,22.67
2023-02-05T03:27:09.706Z,22.30
2023-02-05T03:32:32.428Z,21.48
2023-02-05T03:37:51.365Z,20.20
2023-02-05T03:43:21.267Z,20.23
2023-02-05T03:48:35.436Z,23.23
2023-02-05T03:53:40.382Z,22.92
2023-02-05T03:58:42.633Z,20.73
2023-02-05T04:03:34.792Z,20.35
2023-02-05T04:08:26.757Z,23.13
2023-02-05T04:13:19.370Z,20.10
2023-02-05T04:18:11.979Z,21.57
2023-02-05T04:23:03.929Z,19.02
2023-02-05T04:27:57.691Z,20.25
2023-02-05T04:32:49.648Z,21.00
2023-02-05T04:37:42.904Z,23.52
2023-02-05T04:42:35.205Z,17.88
2023-02-05T04:47:26.969Z,20.02
2023-02-05T04:52:18.774Z,21.05
2023-02-05T04:57:10.620Z,18.77
2023-02-05T05:02:02.407Z,20.38
2023-02-05T05:06:54.257Z,17.85
2023-02-05T05:11:46.001Z,21.10
2023-02-05T05:16:37.779Z,19.05
2023-02-05T05:21:29.521Z,18.30
2023-02-05T05:26:21.243Z,20.90
2023-02-05T05:31:25.467Z,19.30
2023-02-05T05:36:17.753Z,18.27
2023-02-05T05:41:36.527Z,18.40
2023-02-05T05:46:28.362Z,18.30
2023-02-05T05:51:21.028Z,19.25
2023-02-05T05:56:13.174Z,19.50
2023-02-05T06:01:05.830Z,19.63
2023-02-05T06:06:01.234Z,18.73
2023-02-05T06:10:53.061Z,19.35
2023-02-05T06:15:44.839Z,18.45
2023-02-05T06:20:36.678Z,19.55
2023-02-05T06:25:28.548Z,19.90
2023-02-05T06:30:20.453Z,19.35
2023-02-05T06:35:12.207Z,20.17
2023-02-05T06:40:04.142Z,21.90
2023-02-05T06:44:56.026Z,19.23
2023-02-05T06:49:47.803Z,18.00
2023-02-05T06:54:39.602Z,19.77
2023-02-05T06:59:31.391Z,19.77
2023-02-05T07:04:23.175Z,21.73
2023-02-05T07:09:15.043Z,21.10
2023-02-05T07:14:06.769Z,21.17
2023-02-05T07:18:58.676Z,21.00
2023-02-05T07:23:50.504Z,22.63
2023-02-05T07:28:42.625Z,22.23
2023-02-05T07:33:34.650Z,18.67
2023-02-05T07:38:26.581Z,18.30
2023-02-05T07:43:18.366Z,20.75
2023-02-05T07:48:10.206Z,20.55
2023-02-05T07:53:02.019Z,20.00
2023-02-05T07:57:53.780Z,20.55
2023-02-05T08:02:45.602Z,20.00
2023-02-05T08:07:38.284Z,19.55
2023-02-05T08:12:30.065Z,20.70
2023-02-05T08:17:21.991Z,19.33
2023-02-05T08:22:13.745Z,23.35
2023-02-05T08:27:05.517Z,17.88
2023-02-05T08:31:57.290Z,22.80
2023-02-05T08:36:49.221Z,21.98
2023-02-05T08:41:40.951Z,19.73
2023-02-05T08:46:48.511Z,24.75
2023-02-05T08:51:41.651Z,20.45
2023-02-05T08:56:33.379Z,21.90
2023-02-05T09:01:25.221Z,22.27
2023-02-05T09:06:17.004Z,22.40
2023-02-05T09:11:09.056Z,20.42
2023-02-05T09:16:01.094Z,22.08
2023-02-05T09:20:54.501Z,21.50
2023-02-05T09:25:46.334Z,22.05
2023-02-05T09:30:40.147Z,23.73
2023-02-05T09:35:35.688Z,23.48
2023-02-05T09:40:34.168Z,20.50
2023-02-05T09:45:41.299Z,22.70
2023-02-05T09:50:33.924Z,20.45
2023-02-05T09:55:30.665Z,21.90
2023-02-05T10:00:29.732Z,22.98
2023-02-05T10:05:22.449Z,21.65
2023-02-05T10:10:28.523Z,16.63
2023-02-05T10:15:20.279Z,22.05
2023-02-05T10:20:33.921Z,24.30
2023-02-05T10:25:50.308Z,22.60
2023-02-05T10:30:48.305Z,21.45
2023-02-05T10:35:57.581Z,21.80
2023-02-05T10:40:51.827Z,23.17
2023-02-05T10:45:44.036Z,22.60
2023-02-05T10:51:01.227Z,21.45
2023-02-05T10:55:53.111Z,22.30
2023-02-05T11:00:44.962Z,24.50
2023-02-05T11:05:41.845Z,22.63
2023-02-05T11:10:35.885Z,24.95
2023-02-05T11:15:29.751Z,24.20
2023-02-05T11:25:21.321Z,26.75
2023-02-05T11:30:50.392Z,22.63
2023-02-05T11:35:53.895Z,25.63
2023-02-05T11:40:54.856Z,23.75
2023-02-05T11:45:52.027Z,27.80
2023-02-05T11:50:44.315Z,27.73
2023-02-05T11:55:36.400Z,24.95
2023-02-05T12:00:28.764Z,21.52
2023-02-05T12:05:31.543Z,22.63
2023-02-05T12:10:48.238Z,22.37
2023-02-05T12:16:14.528Z,24.58
2023-02-05T12:21:35.800Z,23.63
2023-02-05T12:26:42.398Z,22.27
2023-02-05T12:31:48.882Z,21.73
2023-02-05T12:37:06.317Z,20.20
2023-02-05T12:42:16.831Z,21.30
2023-02-05T12:47:20.602Z,22.05
2023-02-05T12:52:21.151Z,19.23
2023-02-05T12:57:30.530Z,22.27
2023-02-05T13:02:35.168Z,18.52
2023-02-05T13:07:36.335Z,21.75
2023-02-05T13:12:32.527Z,17.85
2023-02-05T13:17:27.327Z,17.83
2023-02-05T13:22:42.273Z,20.80
2023-02-05T13:28:00.733Z,18.80
2023-02-05T13:32:56.421Z,18.98
2023-02-05T13:38:14.698Z,16.50
2023-02-05T13:43:31.787Z,16.83
2023-02-05T13:48:44.495Z,19.67
2023-02-05T13:54:15.052Z,15.93
2023-02-05T13:59:23.845Z,18.35
2023-02-05T14:04:25.740Z,17.58
2023-02-05T14:09:25.139Z,18.13
2023-02-05T14:14:16.899Z,20.17
2023-02-05T14:19:15.956Z,15.68
2023-02-05T14:24:28.118Z,18.02
2023-02-05T14:29:41.025Z,17.25
2023-02-05T14:34:32.757Z,17.50
2023-02-05T14:39:35.345Z,15.35
2023-02-05T14:44:32.174Z,16.33
2023-02-05T14:49:28.030Z,14.15
2023-02-05T14:54:22.954Z,16.20
2023-02-05T14:59:29.374Z,14.35
2023-02-05T15:04:56.605Z,14.73
2023-02-05T15:10:01.276Z,14.68
2023-02-05T15:14:55.634Z,14.07
2023-02-05T15:19:50.485Z,14.60
2023-02-05T15:24:44.422Z,14.88
2023-02-05T15:29:41.906Z,14.10
2023-02-05T15:34:47.008Z,15.75
2023-02-05T15:39:55.917Z,15.00
2023-02-05T15:44:47.757Z,15.02
2023-02-05T15:49:45.068Z,13.15
2023-02-05T15:54:37.107Z,13.70
2023-02-05T15:59:30.964Z,13.73
2023-02-05T16:04:22.731Z,14.45
2023-02-05T16:09:24.221Z,14.88
2023-02-05T16:14:21.747Z,12.63
2023-02-05T16:19:19.509Z,12.18
2023-02-05T16:24:35.034Z,14.93
2023-02-05T16:29:47.760Z,13.98
2023-02-05T16:34:40.773Z,12.63
2023-02-05T16:39:38.741Z,11.23
2023-02-05T16:44:36.778Z,11.93
2023-02-05T16:49:29.264Z,12.30
2023-02-05T16:54:21.172Z,13.47
2023-02-05T16:59:19.774Z,12.93
2023-02-05T17:04:26.869Z,11.15
2023-02-05T17:09:38.973Z,12.00
2023-02-05T17:14:32.693Z,10.95
2023-02-05T17:19:27.640Z,12.32
2023-02-05T17:24:19.375Z,29.42
2023-02-05T17:29:15.908Z,18.02
2023-02-05T17:34:07.792Z,23.25
2023-02-05T17:38:59.721Z,21.92
2023-02-05T17:43:51.542Z,17.38
2023-02-05T17:48:44.865Z,18.63
2023-02-05T17:53:36.610Z,13.43
2023-02-05T17:58:28.460Z,15.88
2023-02-05T18:03:20.255Z,12.65
2023-02-05T18:08:12.187Z,19.90
2023-02-05T18:13:04.095Z,12.00
2023-02-05T18:17:55.954Z,11.68
2023-02-05T18:22:49.082Z,14.95
2023-02-05T18:27:40.978Z,10.68
2023-02-05T18:32:32.819Z,12.80
2023-02-05T18:37:26.432Z,12.18
2023-02-05T18:42:18.415Z,9.32
2023-02-05T18:47:11.439Z,12.18
2023-02-05T18:52:03.332Z,15.40
2023-02-05T18:56:56.406Z,8.90
2023-02-05T19:01:48.164Z,16.42
2023-02-05T19:06:44.513Z,12.43
2023-02-05T19:11:40.915Z,13.10
2023-02-05T19:16:34.548Z,10.85
2023-02-05T19:21:29.075Z,12.40
2023-02-05T19:26:24.865Z,12.02
2023-02-05T19:31:16.760Z,10.52
2023-02-05T19:36:10.135Z,11.85
2023-02-05T19:41:15.741Z,12.85
2023-02-05T19:46:08.489Z,9.65
2023-02-05T19:51:08.222Z,10.90
2023-02-05T19:56:07.304Z,9.20
2023-02-05T20:00:59.120Z,9.13
2023-02-05T20:05:51.204Z,11.23
2023-02-05T20:10:43.210Z,17.92
2023-02-05T20:15:36.545Z,10.30
2023-02-05T20:20:33.891Z,12.18
2023-02-05T20:25:25.875Z,12.55
2023-02-05T20:30:36.709Z,10.15
2023-02-05T20:35:28.793Z,9.63
2023-02-05T20:40:20.540Z,10.13
2023-02-05T20:45:12.334Z,9.15
2023-02-05T20:50:04.378Z,10.13
2023-02-05T20:54:57.204Z,7.55
2023-02-05T20:59:49.107Z,9.10
2023-02-05T21:04:40.991Z,8.30
2023-02-05T21:09:32.994Z,11.10
2023-02-05T21:14:25.136Z,7.28
2023-02-05T21:19:18.649Z,9.02
2023-02-05T21:29:07.839Z,8.27
2023-02-05T21:34:04.534Z,9.43
2023-02-05T21:38:56.940Z,8.13
2023-02-05T21:43:56.989Z,11.95
2023-02-05T21:48:51.599Z,8.77
2023-02-05T21:53:43.512Z,7.45
2023-02-05T21:58:36.828Z,8.23
2023-02-05T22:08:20.487Z,7.28
2023-02-05T22:13:12.283Z,7.60
2023-02-05T22:18:04.135Z,8.48
2023-02-05T22:22:56.039Z,8.10
2023-02-05T22:27:48.131Z,8.10
2023-02-05T22:32:39.919Z,7.75
2023-02-05T22:37:31.697Z,8.60
2023-02-05T22:42:24.868Z,7.60
2023-02-05T22:47:16.657Z,6.97
2023-02-05T22:52:08.550Z,6.95
2023-02-05T22:57:00.379Z,7.28
2023-02-05T23:01:52.191Z,8.65
2023-02-05T23:06:45.165Z,6.90
2023-02-05T23:11:37.578Z,7.43
2023-02-05T23:16:31.667Z,6.15
2023-02-05T23:21:25.338Z,6.80
2023-02-05T23:26:19.804Z,6.43
2023-02-05T23:31:11.781Z,8.15
2023-02-05T23:36:04.475Z,6.95
2023-02-05T23:40:57.076Z,9.47
2023-02-05T23:45:49.998Z,8.47
2023-02-05T23:50:43.712Z,6.72
2023-02-05T23:55:42.772Z,7.75
